Time;durP1;ratioP1;P1;durP2;ratioP2;P2;SDS_P1;SDS_P2;PMS_P1;PMS_P2;Temp;Humidity;BMP_temperature;BMP_pressure;BME280_temperature;BME280_humidity;BME280_pressure;Samples;Min_cycle;Max_cycle;Signal;HPM_P1;HPM_P2
2023/05/23 00:02:12;;;;;;;13.23;4.95;;;;;;;21.75;40.37;101118.06;4951731;28;20038;-39
2023/05/23 00:04:37;;;;;;;8.32;4.35;;;;;;;21.77;40.54;101111.56;4941780;28;20094;-39
2023/05/23 00:07:04;;;;;;;11.15;5.07;;;;;;;21.77;40.66;101105.38;4936472;28;20133;-38
2023/05/23 00:09:32;;;;;;;10.63;5.05;;;;;;;21.73;40.31;101103.97;4973149;28;20382;-40
2023/05/23 00:11:58;;;;;;;9.93;4.95;;;;;;;21.66;40.60;101102.91;4960560;28;20122;-40
2023/05/23 00:14:23;;;;;;;8.77;5.00;;;;;;;21.55;41.03;101096.78;4952252;28;20030;-39
2023/05/23 00:16:50;;;;;;;9.05;4.65;;;;;;;21.47;40.89;101100.22;4963571;28;20037;-39
2023/05/23 00:19:16;;;;;;;11.32;5.35;;;;;;;21.47;40.94;101094.00;4948360;28;20038;-39
2023/05/23 00:21:42;;;;;;;8.48;5.22;;;;;;;21.43;41.19;101096.16;4980479;28;20033;-39
2023/05/23 00:24:09;;;;;;;9.30;4.78;;;;;;;21.47;40.94;101099.34;4968730;28;20176;-38
2023/05/23 00:26:35;;;;;;;9.60;6.13;;;;;;;21.49;40.60;101086.66;4965744;28;20053;-39
2023/05/23 00:29:01;;;;;;;10.07;4.95;;;;;;;21.44;40.89;101088.94;4954355;28;20716;-39
2023/05/23 00:31:26;;;;;;;9.73;4.95;;;;;;;21.42;41.14;101080.22;4980021;28;20030;-39
2023/05/23 00:33:54;;;;;;;8.43;4.80;;;;;;;21.42;41.07;101085.56;4969758;28;20045;-39
2023/05/23 00:36:21;;;;;;;6.85;5.10;;;;;;;21.39;40.98;101080.53;4964868;28;20164;-39
2023/05/23 00:38:46;;;;;;;10.88;5.07;;;;;;;21.30;41.04;101080.44;4951673;28;20030;-39
2023/05/23 00:41:12;;;;;;;11.57;5.45;;;;;;;21.25;41.48;101074.69;4973520;28;20061;-39
2023/05/23 00:43:40;;;;;;;8.90;4.60;;;;;;;21.29;41.39;101076.09;4965922;28;20019;-39
2023/05/23 00:46:06;;;;;;;8.70;5.25;;;;;;;21.31;41.29;101076.78;4972441;28;20037;-39
2023/05/23 00:48:32;;;;;;;12.02;5.13;;;;;;;21.36;41.02;101073.63;4953802;28;20057;-39
2023/05/23 00:50:58;;;;;;;10.40;4.82;;;;;;;21.41;40.82;101076.72;4970133;28;20125;-39
2023/05/23 00:53:24;;;;;;;10.80;5.10;;;;;;;21.36;41.08;101080.84;4971357;28;20035;-39
2023/05/23 00:55:50;;;;;;;8.80;4.70;;;;;;;21.41;40.90;101078.53;4951901;28;20551;-39
2023/05/23 00:58:16;;;;;;;9.05;4.40;;;;;;;21.45;40.85;101080.78;4932614;28;20081;-39
2023/05/23 01:00:43;;;;;;;15.38;5.10;;;;;;;21.48;40.77;101076.94;4947331;28;20116;-39
2023/05/23 01:03:15;;;;;;;8.93;4.88;;;;;;;21.47;40.77;101072.59;4974263;28;20080;-39
2023/05/23 01:05:41;;;;;;;7.35;4.57;;;;;;;21.44;40.97;101071.06;4969887;28;20532;-39
2023/05/23 01:08:07;;;;;;;12.25;5.18;;;;;;;21.44;40.96;101072.88;4939974;28;20045;-39
2023/05/23 01:10:32;;;;;;;8.73;4.65;;;;;;;21.37;41.14;101071.81;4933585;28;20056;-39
2023/05/23 01:13:20;;;;;;;15.20;5.25;;;;;;;21.33;41.31;101071.25;4955156;28;20034;-39
2023/05/23 01:16:07;;;;;;;10.80;5.07;;;;;;;21.36;41.68;101062.94;4970700;28;20039;-39
2023/05/23 01:18:56;;;;;;;8.82;4.32;;;;;;;21.31;41.23;101060.72;4966134;28;20022;-39
2023/05/23 01:21:24;;;;;;;7.13;4.63;;;;;;;21.32;41.29;101058.91;4953845;28;20041;-39
2023/05/23 01:24:02;;;;;;;7.65;4.78;;;;;;;21.27;41.21;101064.69;4965415;28;20026;-39
2023/05/23 01:27:05;;;;;;;7.43;4.38;;;;;;;21.14;41.65;101064.22;4971518;28;20041;-39
2023/05/23 01:29:55;;;;;;;9.15;5.63;;;;;;;21.09;42.05;101055.81;4966270;28;20120;-39
2023/05/23 01:32:23;;;;;;;6.90;5.15;;;;;;;21.12;41.56;101051.00;4964681;28;20027;-39
2023/05/23 01:34:53;;;;;;;10.20;4.95;;;;;;;21.11;41.83;101048.44;4957418;28;20061;-39
2023/05/23 01:37:18;;;;;;;12.00;4.72;;;;;;;21.00;41.89;101050.34;4941647;28;20034;-39
2023/05/23 01:39:44;;;;;;;9.70;4.63;;;;;;;21.00;41.99;101053.03;4953074;28;20613;-39
2023/05/23 01:42:10;;;;;;;8.05;4.32;;;;;;;21.06;41.83;101053.44;4973754;28;20065;-39
2023/05/23 01:44:37;;;;;;;8.23;4.70;;;;;;;21.10;41.52;101044.13;4949103;28;20034;-39
2023/05/23 01:47:04;;;;;;;9.77;4.53;;;;;;;21.10;41.91;101049.47;4963737;28;20027;-40
2023/05/23 01:49:32;;;;;;;4.40;3.13;;;;;;;21.11;41.72;101043.97;4969053;28;20026;-39
2023/05/23 01:52:02;;;;;;;6.85;4.55;;;;;;;21.12;41.38;101031.41;4961069;28;20515;-39
2023/05/23 01:54:29;;;;;;;12.38;5.05;;;;;;;21.14;41.75;101040.13;4959925;28;20103;-39
2023/05/23 01:57:05;;;;;;;9.30;5.00;;;;;;;21.14;41.45;101043.66;4961018;28;20072;-39
2023/05/23 01:59:31;;;;;;;6.50;4.55;;;;;;;21.10;41.80;101044.94;4944141;28;20452;-39
2023/05/23 02:02:00;;;;;;;8.90;5.38;;;;;;;20.95;42.00;101041.94;4959507;28;20046;-39
2023/05/23 02:04:27;;;;;;;10.07;5.10;;;;;;;20.91;41.90;101035.22;4952913;28;20031;-39
2023/05/23 02:06:52;;;;;;;8.40;5.55;;;;;;;20.82;42.35;101028.06;4946898;28;20060;-39
2023/05/23 02:09:23;;;;;;;10.35;5.03;;;;;;;20.79;42.64;101028.38;4945900;28;20400;-39
2023/05/23 02:11:49;;;;;;;6.47;4.57;;;;;;;20.76;42.47;101032.19;4950597;28;20038;-39
2023/05/23 02:14:15;;;;;;;10.00;5.70;;;;;;;20.64;42.75;101025.31;4939618;28;20053;-39
2023/05/23 02:16:40;;;;;;;8.00;4.93;;;;;;;20.56;42.88;101026.91;4932860;28;20034;-39
2023/05/23 02:19:06;;;;;;;11.02;4.97;;;;;;;20.49;43.12;101025.81;4944092;28;20038;-39
2023/05/23 02:21:31;;;;;;;10.13;5.38;;;;;;;20.47;43.18;101019.75;4954142;28;20049;-39
2023/05/23 02:24:00;;;;;;;7.90;5.15;;;;;;;20.51;43.11;101022.97;4950332;28;20045;-39
2023/05/23 02:26:26;;;;;;;8.95;4.65;;;;;;;20.63;42.82;101020.97;4956097;28;20046;-39
2023/05/23 02:28:52;;;;;;;11.68;5.65;;;;;;;20.68;42.70;101021.38;4932652;28;20035;-39
2023/05/23 02:31:18;;;;;;;7.93;4.80;;;;;;;20.68;42.49;101022.19;4968663;28;20062;-39
2023/05/23 02:33:43;;;;;;;8.45;5.40;;;;;;;20.74;42.40;101022.59;4950744;28;20069;-39
2023/05/23 02:36:09;;;;;;;10.95;5.10;;;;;;;20.74;42.40;101015.41;4956978;28;20043;-39
2023/05/23 02:38:34;;;;;;;8.63;4.82;;;;;;;20.65;42.75;101014.47;4938260;28;20196;-39
2023/05/23 02:41:00;;;;;;;9.20;5.05;;;;;;;20.58;42.62;101010.72;4927829;28;20054;-39
2023/05/23 02:43:29;;;;;;;7.30;5.07;;;;;;;20.56;42.80;101010.88;4946793;28;20030;-39
2023/05/23 02:45:54;;;;;;;10.55;5.68;;;;;;;20.62;42.66;101008.59;4932840;28;20077;-39
2023/05/23 02:48:19;;;;;;;9.82;5.18;;;;;;;20.58;42.69;101008.03;4970372;28;20034;-39
2023/05/23 02:50:45;;;;;;;8.18;5.15;;;;;;;20.63;42.32;101000.44;4936384;28;20512;-39
2023/05/23 02:53:10;;;;;;;11.88;6.10;;;;;;;20.65;42.36;101001.09;4938226;28;20034;-39
2023/05/23 02:55:37;;;;;;;9.95;5.40;;;;;;;20.61;42.24;101001.56;4951561;28;20031;-39
2023/05/23 02:58:04;;;;;;;13.18;5.20;;;;;;;20.58;42.63;100996.50;4964212;28;20049;-39
2023/05/23 03:00:31;;;;;;;8.48;5.13;;;;;;;20.54;42.80;100995.94;4951433;28;20493;-39
2023/05/23 03:02:57;;;;;;;9.23;4.40;;;;;;;20.54;42.80;100987.94;4968507;28;20085;-39
2023/05/23 03:05:22;;;;;;;8.60;4.55;;;;;;;20.58;42.83;100992.00;4953114;28;20046;-39
2023/05/23 03:07:48;;;;;;;9.35;5.40;;;;;;;20.63;42.42;100984.38;4963701;28;20030;-39
2023/05/23 03:10:13;;;;;;;12.00;5.13;;;;;;;20.65;42.47;100987.72;4958405;28;20505;-39
2023/05/23 03:12:39;;;;;;;10.10;5.05;;;;;;;20.65;42.32;100984.22;4988279;28;20037;-39
2023/05/23 03:15:07;;;;;;;8.77;5.03;;;;;;;20.64;42.44;100986.06;4969633;28;20547;-39
2023/05/23 03:17:33;;;;;;;10.48;4.90;;;;;;;20.63;42.80;100978.19;4944711;28;20078;-39
2023/05/23 03:19:59;;;;;;;11.88;4.80;;;;;;;20.63;42.53;100983.53;4973891;28;20037;-39
2023/05/23 03:22:24;;;;;;;12.20;5.07;;;;;;;20.66;42.47;100988.59;4961233;28;20034;-38
2023/05/23 03:24:50;;;;;;;8.98;4.43;;;;;;;20.66;42.33;100984.06;4955685;28;20478;-39
2023/05/23 03:27:15;;;;;;;9.38;5.65;;;;;;;20.68;42.27;100984.75;4952947;28;20563;-39
2023/05/23 03:29:41;;;;;;;11.88;6.70;;;;;;;20.68;42.32;100983.94;4934631;28;20039;-39
2023/05/23 03:32:06;;;;;;;10.70;5.32;;;;;;;20.63;42.70;100981.72;4965099;28;20030;-39
2023/05/23 03:34:32;;;;;;;8.70;4.93;;;;;;;20.62;42.48;100981.84;4974262;28;20029;-39
2023/05/23 03:36:58;;;;;;;9.02;4.72;;;;;;;20.59;42.37;100980.31;4983833;28;20030;-39
2023/05/23 03:39:24;;;;;;;9.48;5.57;;;;;;;20.67;42.49;100979.56;4970550;28;20492;-39
2023/05/23 03:41:50;;;;;;;7.43;4.85;;;;;;;20.75;42.47;100982.38;4945411;28;20030;-39
2023/05/23 03:44:15;;;;;;;4.53;2.90;;;;;;;20.78;42.23;100986.59;4954413;28;20043;-39
2023/05/23 03:46:41;;;;;;;11.05;5.22;;;;;;;20.77;42.30;100984.91;4937040;28;20037;-39
2023/05/23 03:49:06;;;;;;;17.88;5.40;;;;;;;20.77;42.34;100984.91;4956939;28;20054;-39
2023/05/23 03:51:33;;;;;;;9.00;5.07;;;;;;;20.78;42.29;100987.41;4967985;28;20397;-39
2023/05/23 03:53:58;;;;;;;12.77;6.55;;;;;;;20.79;42.11;100982.94;4942285;28;20481;-39
2023/05/23 03:56:24;;;;;;;6.80;3.35;;;;;;;20.79;42.30;100988.28;4954337;28;20058;-39
2023/05/23 03:58:50;;;;;;;11.27;5.70;;;;;;;20.81;42.18;100981.78;4952395;28;20030;-39
2023/05/23 04:01:15;;;;;;;11.23;4.82;;;;;;;20.78;42.55;100981.25;4968927;28;20978;-39
2023/05/23 04:03:41;;;;;;;8.40;4.45;;;;;;;20.78;42.33;100991.94;4957959;28;20138;-39
2023/05/23 04:06:07;;;;;;;11.85;5.05;;;;;;;20.82;42.58;100982.59;4949687;28;20049;-39
2023/05/23 04:08:32;;;;;;;8.65;5.10;;;;;;;20.88;42.30;100991.84;4953698;28;20042;-40
2023/05/23 04:11:01;;;;;;;12.35;6.00;;;;;;;20.91;42.23;100989.75;4935279;28;20061;-40
2023/05/23 04:13:27;;;;;;;9.10;5.00;;;;;;;20.93;42.28;100985.09;4943000;28;20042;-41
2023/05/23 04:15:55;;;;;;;12.48;5.60;;;;;;;20.96;42.13;100986.63;4970402;28;20500;-40
2023/05/23 04:18:21;;;;;;;17.95;5.97;;;;;;;20.97;42.36;100994.47;4954762;28;20033;-40
2023/05/23 04:20:46;;;;;;;12.77;6.22;;;;;;;20.97;42.43;100991.78;4965912;28;20034;-38
2023/05/23 04:23:12;;;;;;;13.50;5.72;;;;;;;20.97;42.61;100997.16;4945486;28;20057;-38
2023/05/23 04:25:40;;;;;;;17.92;7.90;;;;;;;20.97;42.46;100991.78;4936325;28;20062;-38
2023/05/23 04:28:09;;;;;;;17.52;6.97;;;;;;;20.95;42.63;100998.31;4948504;28;20034;-38
2023/05/23 04:30:35;;;;;;;10.45;5.70;;;;;;;20.89;43.08;100994.41;4938112;28;20034;-40
2023/05/23 04:33:00;;;;;;;23.92;13.63;;;;;;;20.75;42.98;100992.19;4947845;28;20452;-39
2023/05/23 04:35:27;;;;;;;10.80;6.75;;;;;;;20.70;43.28;100988.13;4950382;28;20040;-39
2023/05/23 04:37:55;;;;;;;8.95;5.50;;;;;;;20.74;43.27;100980.66;4932449;28;20073;-39
2023/05/23 04:40:23;;;;;;;15.75;5.88;;;;;;;20.76;43.38;100975.19;4953029;28;20647;-39
2023/05/23 04:42:48;;;;;;;9.00;5.40;;;;;;;20.79;43.15;100980.25;4953318;28;20030;-40
2023/05/23 04:45:14;;;;;;;10.57;6.00;;;;;;;20.85;43.41;100980.50;4950331;28;22102;-38
2023/05/23 04:47:40;;;;;;;14.25;6.03;;;;;;;20.89;43.18;100978.34;4929952;28;20038;-38
2023/05/23 04:50:09;;;;;;;9.20;5.25;;;;;;;20.89;43.25;100978.34;4944679;28;20074;-39
2023/05/23 04:52:35;;;;;;;7.95;5.35;;;;;;;20.92;43.15;100980.72;4961457;28;20054;-39
2023/05/23 04:55:00;;;;;;;13.25;6.10;;;;;;;20.93;42.93;100984.22;4964313;28;20136;-39
2023/05/23 04:57:26;;;;;;;8.93;4.95;;;;;;;20.85;43.39;100979.63;4926067;28;20579;-39
2023/05/23 04:59:52;;;;;;;9.88;5.50;;;;;;;20.78;43.46;100978.56;4946571;28;20470;-40
2023/05/23 05:02:18;;;;;;;13.57;6.20;;;;;;;20.80;43.23;100971.22;4931168;28;20031;-39
2023/05/23 05:04:43;;;;;;;15.68;5.47;;;;;;;20.86;43.26;100968.81;4967841;28;20089;-39
2023/05/23 05:07:10;;;;;;;9.48;5.50;;;;;;;20.92;43.09;100954.00;4958680;28;20038;-39
2023/05/23 05:09:35;;;;;;;12.43;5.60;;;;;;;20.93;43.13;100955.66;4969876;28;20061;-39
2023/05/23 05:12:01;;;;;;;11.30;5.47;;;;;;;20.92;43.39;100954.00;4943354;28;20121;-40
2023/05/23 05:14:27;;;;;;;12.07;6.40;;;;;;;20.95;43.18;100961.69;4969836;28;20038;-39
2023/05/23 05:16:56;;;;;;;11.68;5.60;;;;;;;20.95;43.10;100956.34;4957860;28;20054;-39
2023/05/23 05:19:23;;;;;;;12.52;6.50;;;;;;;20.94;43.38;100952.00;4971291;28;20109;-39
2023/05/23 05:21:48;;;;;;;17.02;9.18;;;;;;;20.98;43.31;100958.72;4965930;28;20030;-39
2023/05/23 05:24:14;;;;;;;13.25;6.25;;;;;;;20.99;43.38;100955.03;4955249;28;20026;-39
2023/05/23 05:26:40;;;;;;;13.65;6.60;;;;;;;21.02;43.09;100959.28;4971189;28;20034;-39
2023/05/23 05:29:05;;;;;;;9.25;5.45;;;;;;;20.89;43.63;100954.28;4971606;28;20166;-39
2023/05/23 05:31:31;;;;;;;13.35;5.75;;;;;;;20.90;43.62;100963.13;4940955;28;20713;-39
2023/05/23 05:33:57;;;;;;;8.98;5.43;;;;;;;20.90;43.62;100958.66;4935582;28;20039;-40
2023/05/23 05:36:22;;;;;;;10.95;5.68;;;;;;;20.91;43.56;100957.66;4940310;28;20118;-39
2023/05/23 05:38:48;;;;;;;14.82;6.30;;;;;;;20.91;43.70;100965.69;4952541;28;20121;-39
2023/05/23 05:41:14;;;;;;;22.77;7.20;;;;;;;20.93;43.63;100953.00;4958561;28;20038;-43
2023/05/23 05:43:39;;;;;;;26.35;8.27;;;;;;;20.91;43.71;100951.44;4943054;28;20030;-40
2023/05/23 05:46:05;;;;;;;26.70;7.90;;;;;;;20.90;43.92;100949.75;4939057;28;20044;-40
2023/05/23 05:48:31;;;;;;;23.00;6.45;;;;;;;20.91;44.19;100957.66;4941779;28;20121;-40
2023/05/23 05:50:56;;;;;;;13.75;6.78;;;;;;;20.89;44.36;100951.59;4970265;28;20034;-40
2023/05/23 05:53:22;;;;;;;16.05;6.60;;;;;;;20.91;44.48;100951.44;4953093;28;20394;-40
2023/05/23 05:55:47;;;;;;;17.17;6.30;;;;;;;20.91;44.33;100957.66;4951677;28;20614;-40
2023/05/23 05:58:13;;;;;;;16.70;8.20;;;;;;;20.91;44.62;100957.66;4957102;28;20401;-40
2023/05/23 06:00:41;;;;;;;15.23;6.47;;;;;;;20.90;44.60;100961.31;4936175;28;20114;-41
2023/05/23 06:03:07;;;;;;;18.90;6.03;;;;;;;20.91;44.61;100957.66;4957387;28;20027;-40
2023/05/23 06:05:33;;;;;;;17.10;5.90;;;;;;;20.91;44.88;100952.31;4970959;28;20030;-40
2023/05/23 06:07:59;;;;;;;17.38;5.72;;;;;;;20.93;45.10;100942.31;4971317;28;24737;-39
2023/05/23 06:10:25;;;;;;;11.60;5.50;;;;;;;20.96;44.79;100941.97;4954465;28;20543;-40
2023/05/23 06:12:50;;;;;;;9.90;5.15;;;;;;;20.99;44.97;100940.84;4954179;28;20035;-40
2023/05/23 06:15:16;;;;;;;11.60;5.88;;;;;;;20.99;44.75;100940.84;4939978;28;20374;-40
2023/05/23 06:17:43;;;;;;;15.65;5.40;;;;;;;21.02;44.70;100941.38;4950215;28;20037;-40
2023/05/23 06:20:10;;;;;;;18.92;5.65;;;;;;;21.05;44.65;100939.38;4973664;28;20030;-40
2023/05/23 06:22:35;;;;;;;9.80;4.82;;;;;;;21.04;44.71;100937.72;4952564;28;20039;-40
2023/05/23 06:25:01;;;;;;;11.13;4.68;;;;;;;21.06;44.86;100939.22;4951868;28;20046;-40
2023/05/23 06:27:27;;;;;;;14.63;5.25;;;;;;;21.10;44.83;100937.09;4959237;28;20085;-40
2023/05/23 06:29:52;;;;;;;14.95;5.25;;;;;;;21.13;44.83;100934.97;4940295;28;20527;-40
2023/05/23 06:32:17;;;;;;;10.55;5.32;;;;;;;21.17;44.79;100935.47;4955336;28;20038;-40
2023/05/23 06:34:43;;;;;;;12.07;5.47;;;;;;;21.22;44.84;100929.66;4968271;28;20030;-40
2023/05/23 06:37:09;;;;;;;11.10;5.53;;;;;;;21.26;45.03;100929.19;4953025;28;20456;-40
2023/05/23 06:39:34;;;;;;;10.18;5.53;;;;;;;21.30;44.67;100930.56;4947018;28;20175;-40
2023/05/23 06:42:00;;;;;;;11.98;6.43;;;;;;;21.34;45.03;100933.78;4952142;28;20037;-40
2023/05/23 06:44:26;;;;;;;8.65;5.50;;;;;;;21.34;44.70;100922.25;4956851;28;20094;-39
2023/05/23 06:46:56;;;;;;;8.82;5.70;;;;;;;21.37;44.75;100922.78;4959067;28;20034;-39
2023/05/23 06:49:22;;;;;;;7.75;5.13;;;;;;;21.37;44.91;100924.63;4955556;28;20033;-39
2023/05/23 06:51:48;;;;;;;8.10;5.20;;;;;;;21.39;44.97;100922.63;4943412;28;20052;-39
2023/05/23 06:54:13;;;;;;;8.90;5.07;;;;;;;21.42;44.67;100930.31;4944834;28;20389;-39
2023/05/23 06:56:39;;;;;;;11.90;5.90;;;;;;;21.41;44.61;100923.28;4967589;28;20401;-40
2023/05/23 06:59:05;;;;;;;9.88;5.43;;;;;;;21.43;44.69;100930.19;4955479;28;20096;-39
2023/05/23 07:01:30;;;;;;;12.15;5.50;;;;;;;21.46;44.42;100924.53;4942509;28;20107;-39
2023/05/23 07:03:56;;;;;;;13.13;5.68;;;;;;;21.48;44.67;100925.19;4979707;28;20054;-40
2023/05/23 07:06:21;;;;;;;12.35;5.95;;;;;;;21.52;44.44;100925.75;4950075;28;20041;-40
2023/05/23 07:08:47;;;;;;;11.00;5.20;;;;;;;21.55;44.44;100925.44;4949984;28;20038;-40
2023/05/23 07:11:12;;;;;;;14.25;5.85;;;;;;;21.60;44.29;100923.13;4969903;28;20553;-40
2023/05/23 07:13:38;;;;;;;12.57;6.03;;;;;;;21.63;44.05;100927.31;4941924;28;20048;-39
2023/05/23 07:16:03;;;;;;;15.35;5.97;;;;;;;21.64;44.51;100930.88;4977286;28;20046;-39
2023/05/23 07:18:32;;;;;;;13.05;5.90;;;;;;;21.65;44.37;100919.16;4949373;28;20053;-39
2023/05/23 07:20:57;;;;;;;14.82;5.97;;;;;;;21.65;44.31;100914.63;4979106;28;20042;-39
2023/05/23 07:23:23;;;;;;;15.98;7.70;;;;;;;21.70;44.57;100923.03;4956327;28;20026;-39
2023/05/23 07:25:48;;;;;;;11.98;5.70;;;;;;;21.75;44.33;100919.88;4958184;28;20560;-39
2023/05/23 07:28:14;;;;;;;9.88;5.00;;;;;;;21.81;44.50;100919.25;4969783;28;20046;-39
2023/05/23 07:30:41;;;;;;;8.93;5.78;;;;;;;21.88;44.38;100917.63;4954505;28;20038;-39
2023/05/23 07:33:07;;;;;;;9.05;5.03;;;;;;;21.96;43.85;100916.81;4970341;28;20034;-39
2023/05/23 07:35:32;;;;;;;12.32;5.65;;;;;;;22.00;44.25;100909.31;4955279;28;20417;-39
2023/05/23 07:37:58;;;;;;;9.57;5.43;;;;;;;22.04;44.00;100913.34;4942562;28;20096;-40
2023/05/23 07:40:23;;;;;;;14.70;5.53;;;;;;;22.06;44.29;100906.00;4952461;28;20042;-39
2023/05/23 07:42:49;;;;;;;10.48;5.05;;;;;;;22.12;44.27;100909.88;4952255;28;20023;-39
2023/05/23 07:45:15;;;;;;;18.63;7.72;;;;;;;22.14;44.24;100919.44;4953128;28;20030;-39
2023/05/23 07:47:40;;;;;;;17.60;7.55;;;;;;;22.21;44.35;100914.28;4945081;28;20022;-39
2023/05/23 07:50:07;;;;;;;17.30;6.85;;;;;;;22.24;43.87;100916.59;4955936;28;20042;-39
2023/05/23 07:52:32;;;;;;;13.00;6.43;;;;;;;22.28;43.88;100909.09;4961069;28;20031;-41
2023/05/23 07:54:58;;;;;;;16.52;6.50;;;;;;;22.30;43.57;100915.97;4971657;28;20030;-39
2023/05/23 07:57:25;;;;;;;21.38;7.80;;;;;;;22.34;43.55;100913.81;4977555;28;20026;-39
2023/05/23 07:59:51;;;;;;;8.90;5.50;;;;;;;22.42;43.53;100911.19;4972607;28;20038;-39
2023/05/23 08:02:17;;;;;;;11.57;5.40;;;;;;;22.45;43.39;100910.88;4971312;28;20627;-39
2023/05/23 08:04:42;;;;;;;10.35;5.18;;;;;;;22.47;43.14;100908.84;4944982;28;20049;-39
2023/05/23 08:07:08;;;;;;;17.98;8.15;;;;;;;22.48;43.34;100913.22;4954415;28;20065;-39
2023/05/23 08:09:34;;;;;;;14.00;5.85;;;;;;;22.52;43.23;100917.25;4973821;28;20026;-39
2023/05/23 08:11:59;;;;;;;11.90;5.60;;;;;;;22.55;42.92;100916.06;4977331;28;20475;-39
2023/05/23 08:14:25;;;;;;;13.02;5.85;;;;;;;22.54;43.10;100914.41;4966949;28;20056;-39
2023/05/23 08:16:51;;;;;;;13.48;6.00;;;;;;;22.57;43.00;100924.81;4968779;28;21689;-39
2023/05/23 08:19:16;;;;;;;12.55;5.72;;;;;;;22.57;42.93;100924.81;4967008;28;20141;-39
2023/05/23 08:21:42;;;;;;;11.02;6.47;;;;;;;22.51;43.13;100922.78;4968622;28;20033;-39
2023/05/23 08:24:07;;;;;;;13.27;6.65;;;;;;;22.47;42.81;100924.94;4952012;28;20057;-39
2023/05/23 08:26:34;;;;;;;9.27;5.68;;;;;;;22.45;42.90;100924.28;4989983;28;20508;-39
2023/05/23 08:29:01;;;;;;;23.38;13.18;;;;;;;22.45;42.80;100923.44;4967405;28;20038;-39
2023/05/23 08:31:27;;;;;;;12.85;7.28;;;;;;;22.49;42.68;100925.63;4976324;28;20030;-39
2023/05/23 08:33:53;;;;;;;9.68;5.82;;;;;;;22.56;42.40;100923.13;4959683;28;20102;-39
2023/05/23 08:36:18;;;;;;;15.73;6.22;;;;;;;22.61;42.64;100919.97;4970301;28;20120;-40
2023/05/23 08:38:44;;;;;;;10.05;6.50;;;;;;;22.66;42.56;100931.03;4943687;28;20132;-40
2023/05/23 08:41:17;;;;;;;9.73;4.35;;;;;;;22.67;42.43;100930.03;4953287;28;20062;-40
2023/05/23 08:43:43;;;;;;;13.70;6.18;;;;;;;22.71;42.50;100926.03;4975036;28;20036;-40
2023/05/23 08:46:09;;;;;;;12.57;5.95;;;;;;;22.76;42.43;100929.06;4967838;28;20038;-39
2023/05/23 08:48:37;;;;;;;11.85;7.47;;;;;;;22.79;42.18;100934.06;4960978;28;20038;-40
2023/05/23 08:51:03;;;;;;;19.35;9.07;;;;;;;22.81;42.32;100936.63;4969735;28;20023;-40
2023/05/23 08:53:30;;;;;;;15.10;7.63;;;;;;;22.84;42.59;100936.25;4950844;28;20346;-39
2023/05/23 08:56:01;;;;;;;10.43;6.35;;;;;;;22.88;42.46;100934.09;4971236;28;20022;-40
2023/05/23 08:58:29;;;;;;;12.68;5.60;;;;;;;22.96;42.78;100932.28;4961291;28;20509;-39
2023/05/23 09:00:55;;;;;;;14.38;6.15;;;;;;;22.99;42.70;100937.28;4954005;28;20090;-39
2023/05/23 09:03:22;;;;;;;10.80;5.82;;;;;;;22.86;43.09;100939.63;4956055;28;20460;-39
2023/05/23 09:05:49;;;;;;;7.95;5.13;;;;;;;23.11;42.40;100937.00;4958534;28;20385;-39
2023/05/23 09:08:15;;;;;;;11.32;6.65;;;;;;;23.11;42.46;100937.81;4967873;28;20118;-40
2023/05/23 09:10:41;;;;;;;10.95;6.18;;;;;;;23.16;42.38;100933.81;4974387;28;20050;-39
2023/05/23 09:13:08;;;;;;;12.25;5.93;;;;;;;23.21;42.68;100939.56;4952796;28;20055;-39
2023/05/23 09:15:34;;;;;;;12.00;5.68;;;;;;;23.26;42.46;100947.91;4938756;28;20041;-39
2023/05/23 09:18:03;;;;;;;14.75;6.13;;;;;;;23.27;42.58;100947.78;4968610;28;20030;-39
2023/05/23 09:20:29;;;;;;;10.88;5.93;;;;;;;23.30;42.29;100960.00;4955455;28;20089;-40
2023/05/23 09:22:55;;;;;;;10.30;5.97;;;;;;;23.31;42.08;100950.09;4959481;28;20045;-39
2023/05/23 09:25:20;;;;;;;10.32;6.72;;;;;;;23.36;42.25;100951.28;4966703;28;20026;-39
2023/05/23 09:27:46;;;;;;;13.68;6.70;;;;;;;23.39;42.35;100953.63;4973701;28;20121;-39
2023/05/23 09:30:12;;;;;;;11.20;6.00;;;;;;;23.41;42.21;100953.47;4934073;28;20042;-39
2023/05/23 09:32:39;;;;;;;10.68;5.65;;;;;;;23.40;42.01;100959.84;4942634;28;20129;-38
2023/05/23 09:35:06;;;;;;;14.20;6.47;;;;;;;23.41;42.24;100951.59;4925909;28;20033;-38
2023/05/23 09:37:36;;;;;;;14.07;6.53;;;;;;;23.44;42.12;100956.66;4960464;28;20099;-38
2023/05/23 09:40:07;;;;;;;11.73;6.75;;;;;;;23.51;42.38;100953.31;4949578;28;21773;-38
2023/05/23 09:42:33;;;;;;;9.63;5.97;;;;;;;23.54;42.28;100943.06;4964112;28;20026;-38
2023/05/23 09:44:59;;;;;;;13.63;6.47;;;;;;;23.62;42.20;100941.34;4969382;28;20088;-39
2023/05/23 09:47:25;;;;;;;10.80;6.55;;;;;;;23.64;42.38;100948.25;4946678;28;20038;-38
2023/05/23 09:49:51;;;;;;;11.55;6.53;;;;;;;23.66;42.02;100954.28;4949364;28;20031;-39
2023/05/23 09:52:18;;;;;;;11.13;6.38;;;;;;;23.67;42.28;100958.63;4951177;28;20042;-39
2023/05/23 09:54:45;;;;;;;13.80;6.72;;;;;;;23.71;42.35;100954.59;4938446;28;20088;-39
2023/05/23 09:57:12;;;;;;;11.77;6.75;;;;;;;23.74;42.26;100954.28;4963816;28;21665;-39
2023/05/23 09:59:47;;;;;;;12.20;7.03;;;;;;;23.79;42.48;100952.94;4937531;28;20038;-39
2023/05/23 10:02:15;;;;;;;13.65;6.75;;;;;;;23.81;42.41;100953.59;4950572;28;20090;-39
2023/05/23 10:04:42;;;;;;;10.20;6.22;;;;;;;23.81;42.28;100953.59;4952261;28;20119;-39
2023/05/23 10:07:18;;;;;;;13.55;5.97;;;;;;;23.87;42.51;100958.28;4956839;28;20429;-39
2023/05/23 10:09:55;;;;;;;12.20;5.72;;;;;;;23.86;42.54;100954.75;4933987;28;20038;-39
2023/05/23 10:12:38;;;;;;;9.85;6.30;;;;;;;23.85;42.80;100962.97;4949602;28;20034;-41
2023/05/23 10:15:07;;;;;;;9.93;6.78;;;;;;;23.85;42.70;100957.59;4960526;28;20121;-40
2023/05/23 10:17:36;;;;;;;9.70;6.10;;;;;;;23.86;42.58;100956.59;4952826;28;20030;-40
2023/05/23 10:20:14;;;;;;;8.25;6.20;;;;;;;23.91;42.76;100962.31;4968680;28;20045;-40
2023/05/23 10:22:41;;;;;;;11.55;6.82;;;;;;;23.93;42.86;100968.34;4958907;28;20030;-39
2023/05/23 10:25:09;;;;;;;17.00;7.05;;;;;;;23.96;42.93;100961.78;4960761;28;20038;-39
2023/05/23 10:27:36;;;;;;;13.65;8.43;;;;;;;23.96;43.00;100961.78;4961313;28;20041;-39
2023/05/23 10:30:02;;;;;;;12.98;6.75;;;;;;;23.92;43.20;100965.81;4957105;28;20077;-40
2023/05/23 10:32:29;;;;;;;15.52;9.23;;;;;;;24.09;42.81;100964.78;4970605;28;20393;-41
2023/05/23 10:35:08;;;;;;;13.30;7.72;;;;;;;24.14;42.87;100965.13;4932199;28;20152;-41
2023/05/23 10:38:12;;;;;;;9.13;6.75;;;;;;;24.15;43.22;100972.19;4964367;28;20441;-38
2023/05/23 10:40:50;;;;;;;10.77;6.28;;;;;;;24.17;43.24;100969.31;4959200;28;20041;-39
2023/05/23 10:43:52;;;;;;;7.18;5.47;;;;;;;24.23;43.45;100974.00;4957429;28;20960;-39
2023/05/23 10:46:21;;;;;;;11.15;5.63;;;;;;;24.28;43.30;100968.94;4971114;28;20034;-40
2023/05/23 10:48:52;;;;;;;7.95;5.35;;;;;;;24.29;43.54;100967.91;4965774;28;20042;-40
2023/05/23 10:51:19;;;;;;;8.30;5.75;;;;;;;24.34;43.42;100967.41;4962532;28;20037;-39
2023/05/23 10:53:46;;;;;;;10.85;5.78;;;;;;;24.38;43.63;100970.59;4948610;28;20125;-40
2023/05/23 10:56:24;;;;;;;8.35;6.20;;;;;;;24.19;44.32;100978.91;4948075;28;20063;-40
2023/05/23 10:58:54;;;;;;;11.68;5.88;;;;;;;24.51;43.66;100973.56;4970254;28;20049;-40
2023/05/23 11:01:19;;;;;;;10.93;6.13;;;;;;;24.55;43.66;100977.59;4967462;28;20034;-40
2023/05/23 11:03:45;;;;;;;9.68;6.65;;;;;;;24.52;43.61;100972.53;4951755;28;20390;-39
2023/05/23 11:06:27;;;;;;;10.85;6.35;;;;;;;24.63;43.88;100969.47;4965291;28;20489;-39
2023/05/23 11:09:01;;;;;;;9.20;6.47;;;;;;;24.66;43.58;100976.31;4965726;28;20464;-39
2023/05/23 11:11:52;;;;;;;9.40;5.75;;;;;;;24.69;43.54;100972.47;4963374;28;20026;-39
2023/05/23 11:14:36;;;;;;;13.00;7.40;;;;;;;24.75;43.58;100979.84;4961359;28;20169;-40
2023/05/23 11:17:11;;;;;;;9.27;5.53;;;;;;;24.81;43.54;100966.53;4960843;28;20287;-39
2023/05/23 11:19:54;;;;;;;10.73;5.97;;;;;;;24.84;43.41;100969.88;4968101;28;20062;-39
2023/05/23 11:22:20;;;;;;;9.50;5.30;;;;;;;24.87;43.59;100970.38;4948740;28;20121;-39